sensor_id;sensor_type;location;lat;lon;timestamp;temperature;humidity
17080;DHT22;8655;57.106;-2.088;2023-07-31T00:01:24;22.30;81.20
17080;DHT22;8655;57.106;-2.088;2023-07-31T00:03:50;22.30;81.20
17080;DHT22;8655;57.106;-2.088;2023-07-31T00:06:15;22.30;81.20
17080;DHT22;8655;57.106;-2.088;2023-07-31T00:08:41;22.30;81.20
17080;DHT22;8655;57.106;-2.088;2023-07-31T00:11:06;22.30;81.20
17080;DHT22;8655;57.106;-2.088;2023-07-31T00:13:32;22.30;81.20
17080;DHT22;8655;57.106;-2.088;2023-07-31T00:15:59;22.30;81.20
17080;DHT22;8655;57.106;-2.088;2023-07-31T00:18:25;22.30;81.20
17080;DHT22;8655;57.106;-2.088;2023-07-31T00:20:50;22.30;81.20
17080;DHT22;8655;57.106;-2.088;2023-07-31T00:23:16;22.30;81.20
17080;DHT22;8655;57.106;-2.088;2023-07-31T00:25:42;22.30;81.20
17080;DHT22;8655;57.106;-2.088;2023-07-31T00:28:07;22.30;81.20
17080;DHT22;8655;57.106;-2.088;2023-07-31T00:30:33;22.30;81.10
17080;DHT22;8655;57.106;-2.088;2023-07-31T00:32:59;22.30;81.10
17080;DHT22;8655;57.106;-2.088;2023-07-31T00:35:24;22.30;81.10
17080;DHT22;8655;57.106;-2.088;2023-07-31T00:37:50;22.30;81.10
17080;DHT22;8655;57.106;-2.088;2023-07-31T00:40:16;22.30;81.20
17080;DHT22;8655;57.106;-2.088;2023-07-31T00:42:41;22.30;81.10
17080;DHT22;8655;57.106;-2.088;2023-07-31T00:45:07;22.20;81.00
17080;DHT22;8655;57.106;-2.088;2023-07-31T00:47:33;22.20;81.00
17080;DHT22;8655;57.106;-2.088;2023-07-31T00:49:59;22.20;81.00
17080;DHT22;8655;57.106;-2.088;2023-07-31T00:52:24;22.30;81.10
17080;DHT22;8655;57.106;-2.088;2023-07-31T00:54:50;22.20;81.00
17080;DHT22;8655;57.106;-2.088;2023-07-31T00:57:16;22.20;81.00
17080;DHT22;8655;57.106;-2.088;2023-07-31T00:59:41;22.20;81.00
17080;DHT22;8655;57.106;-2.088;2023-07-31T01:02:07;22.20;81.00
17080;DHT22;8655;57.106;-2.088;2023-07-31T01:04:33;22.20;80.90
17080;DHT22;8655;57.106;-2.088;2023-07-31T01:09:45;22.20;81.60
17080;DHT22;8655;57.106;-2.088;2023-07-31T01:12:16;22.20;81.00
17080;DHT22;8655;57.106;-2.088;2023-07-31T01:15:02;22.20;80.90
17080;DHT22;8655;57.106;-2.088;2023-07-31T01:17:28;22.20;80.90
17080;DHT22;8655;57.106;-2.088;2023-07-31T01:19:56;22.20;80.90
17080;DHT22;8655;57.106;-2.088;2023-07-31T01:31:21;22.20;80.90
17080;DHT22;8655;57.106;-2.088;2023-07-31T01:33:49;22.20;80.90
17080;DHT22;8655;57.106;-2.088;2023-07-31T01:36:15;22.10;80.80
17080;DHT22;8655;57.106;-2.088;2023-07-31T01:38:41;22.20;80.90
17080;DHT22;8655;57.106;-2.088;2023-07-31T01:41:06;22.10;80.80
17080;DHT22;8655;57.106;-2.088;2023-07-31T01:43:32;22.10;80.80
17080;DHT22;8655;57.106;-2.088;2023-07-31T01:45:58;22.10;80.80
17080;DHT22;8655;57.106;-2.088;2023-07-31T01:48:23;22.10;80.80
17080;DHT22;8655;57.106;-2.088;2023-07-31T01:50:49;22.20;80.90
17080;DHT22;8655;57.106;-2.088;2023-07-31T01:53:15;22.10;80.80
17080;DHT22;8655;57.106;-2.088;2023-07-31T01:55:40;22.10;80.80
17080;DHT22;8655;57.106;-2.088;2023-07-31T01:58:06;22.10;80.80
17080;DHT22;8655;57.106;-2.088;2023-07-31T02:00:32;22.10;80.80
17080;DHT22;8655;57.106;-2.088;2023-07-31T02:02:58;22.10;80.80
17080;DHT22;8655;57.106;-2.088;2023-07-31T02:05:24;22.10;80.70
17080;DHT22;8655;57.106;-2.088;2023-07-31T02:07:50;22.10;80.80
17080;DHT22;8655;57.106;-2.088;2023-07-31T02:10:15;22.10;80.80
17080;DHT22;8655;57.106;-2.088;2023-07-31T02:12:41;22.10;80.80
17080;DHT22;8655;57.106;-2.088;2023-07-31T02:15:07;22.10;80.80
17080;DHT22;8655;57.106;-2.088;2023-07-31T02:17:33;22.10;80.80
17080;DHT22;8655;57.106;-2.088;2023-07-31T02:19:59;22.10;80.80
17080;DHT22;8655;57.106;-2.088;2023-07-31T02:22:24;22.10;80.70
17080;DHT22;8655;57.106;-2.088;2023-07-31T02:24:50;22.10;80.70
17080;DHT22;8655;57.106;-2.088;2023-07-31T02:27:15;22.10;80.80
17080;DHT22;8655;57.106;-2.088;2023-07-31T02:29:41;22.10;80.70
17080;DHT22;8655;57.106;-2.088;2023-07-31T02:32:07;22.10;80.70
17080;DHT22;8655;57.106;-2.088;2023-07-31T02:34:32;22.10;80.80
17080;DHT22;8655;57.106;-2.088;2023-07-31T02:36:58;22.10;80.80
17080;DHT22;8655;57.106;-2.088;2023-07-31T02:39:24;22.10;81.40
17080;DHT22;8655;57.106;-2.088;2023-07-31T02:41:49;22.10;80.70
17080;DHT22;8655;57.106;-2.088;2023-07-31T02:44:15;22.10;80.70
17080;DHT22;8655;57.106;-2.088;2023-07-31T02:46:40;22.00;80.60
17080;DHT22;8655;57.106;-2.088;2023-07-31T02:49:06;22.00;80.60
17080;DHT22;8655;57.106;-2.088;2023-07-31T02:51:32;22.00;80.60
17080;DHT22;8655;57.106;-2.088;2023-07-31T02:53:57;22.00;80.60
17080;DHT22;8655;57.106;-2.088;2023-07-31T02:56:23;22.00;80.60
17080;DHT22;8655;57.106;-2.088;2023-07-31T02:58:48;22.10;80.70
17080;DHT22;8655;57.106;-2.088;2023-07-31T03:01:14;22.00;80.60
17080;DHT22;8655;57.106;-2.088;2023-07-31T03:03:41;22.00;80.60
17080;DHT22;8655;57.106;-2.088;2023-07-31T03:06:07;22.10;80.60
17080;DHT22;8655;57.106;-2.088;2023-07-31T03:08:33;22.00;80.60
17080;DHT22;8655;57.106;-2.088;2023-07-31T03:10:58;22.00;80.60
17080;DHT22;8655;57.106;-2.088;2023-07-31T03:13:24;22.00;80.60
17080;DHT22;8655;57.106;-2.088;2023-07-31T03:15:50;22.00;80.60
17080;DHT22;8655;57.106;-2.088;2023-07-31T03:18:16;22.00;80.60
17080;DHT22;8655;57.106;-2.088;2023-07-31T03:20:44;22.00;80.50
17080;DHT22;8655;57.106;-2.088;2023-07-31T03:23:10;22.00;80.60
17080;DHT22;8655;57.106;-2.088;2023-07-31T03:25:36;22.00;80.50
17080;DHT22;8655;57.106;-2.088;2023-07-31T03:28:02;22.00;80.50
17080;DHT22;8655;57.106;-2.088;2023-07-31T03:30:27;22.00;80.50
17080;DHT22;8655;57.106;-2.088;2023-07-31T03:32:53;21.90;80.40
17080;DHT22;8655;57.106;-2.088;2023-07-31T03:35:19;22.00;80.50
17080;DHT22;8655;57.106;-2.088;2023-07-31T03:37:44;21.90;80.40
17080;DHT22;8655;57.106;-2.088;2023-07-31T03:40:10;21.90;80.40
17080;DHT22;8655;57.106;-2.088;2023-07-31T03:42:36;22.00;80.50
17080;DHT22;8655;57.106;-2.088;2023-07-31T03:45:02;21.90;80.40
17080;DHT22;8655;57.106;-2.088;2023-07-31T03:47:27;21.90;80.40
17080;DHT22;8655;57.106;-2.088;2023-07-31T03:49:53;21.90;80.40
17080;DHT22;8655;57.106;-2.088;2023-07-31T03:52:19;22.00;80.50
17080;DHT22;8655;57.106;-2.088;2023-07-31T03:54:44;22.00;80.60
17080;DHT22;8655;57.106;-2.088;2023-07-31T03:57:10;21.90;80.40
17080;DHT22;8655;57.106;-2.088;2023-07-31T03:59:37;21.90;80.40
17080;DHT22;8655;57.106;-2.088;2023-07-31T04:02:04;21.90;80.40
17080;DHT22;8655;57.106;-2.088;2023-07-31T04:04:30;21.90;80.40
17080;DHT22;8655;57.106;-2.088;2023-07-31T04:06:55;21.90;80.40
17080;DHT22;8655;57.106;-2.088;2023-07-31T04:09:21;21.90;80.40
17080;DHT22;8655;57.106;-2.088;2023-07-31T04:11:47;21.90;80.30
17080;DHT22;8655;57.106;-2.088;2023-07-31T04:14:12;21.90;80.30
17080;DHT22;8655;57.106;-2.088;2023-07-31T04:16:38;21.90;80.40
17080;DHT22;8655;57.106;-2.088;2023-07-31T04:19:04;21.90;80.30
17080;DHT22;8655;57.106;-2.088;2023-07-31T04:21:29;21.80;80.30
17080;DHT22;8655;57.106;-2.088;2023-07-31T04:23:55;21.90;80.40
17080;DHT22;8655;57.106;-2.088;2023-07-31T04:26:22;21.80;80.30
17080;DHT22;8655;57.106;-2.088;2023-07-31T04:28:47;21.80;80.20
17080;DHT22;8655;57.106;-2.088;2023-07-31T04:31:13;21.80;80.20
17080;DHT22;8655;57.106;-2.088;2023-07-31T04:33:39;21.80;80.30
17080;DHT22;8655;57.106;-2.088;2023-07-31T04:36:04;21.80;80.30
17080;DHT22;8655;57.106;-2.088;2023-07-31T04:38:30;21.80;80.20
17080;DHT22;8655;57.106;-2.088;2023-07-31T04:40:56;21.80;80.20
17080;DHT22;8655;57.106;-2.088;2023-07-31T04:43:21;21.80;80.20
17080;DHT22;8655;57.106;-2.088;2023-07-31T04:45:47;21.80;80.20
17080;DHT22;8655;57.106;-2.088;2023-07-31T04:48:14;21.80;80.30
17080;DHT22;8655;57.106;-2.088;2023-07-31T04:50:40;21.80;80.20
17080;DHT22;8655;57.106;-2.088;2023-07-31T04:53:05;21.80;80.20
17080;DHT22;8655;57.106;-2.088;2023-07-31T04:55:31;21.80;80.30
17080;DHT22;8655;57.106;-2.088;2023-07-31T04:57:58;21.80;80.30
17080;DHT22;8655;57.106;-2.088;2023-07-31T05:00:24;21.80;80.20
17080;DHT22;8655;57.106;-2.088;2023-07-31T05:02:50;21.80;80.20
17080;DHT22;8655;57.106;-2.088;2023-07-31T05:05:15;21.80;80.20
17080;DHT22;8655;57.106;-2.088;2023-07-31T05:07:41;21.80;80.20
17080;DHT22;8655;57.106;-2.088;2023-07-31T05:10:07;21.80;80.30
17080;DHT22;8655;57.106;-2.088;2023-07-31T05:12:33;21.80;80.30
17080;DHT22;8655;57.106;-2.088;2023-07-31T05:14:58;21.80;80.30
17080;DHT22;8655;57.106;-2.088;2023-07-31T05:17:24;21.80;80.30
17080;DHT22;8655;57.106;-2.088;2023-07-31T05:19:50;21.80;80.30
17080;DHT22;8655;57.106;-2.088;2023-07-31T05:22:15;21.80;80.20
17080;DHT22;8655;57.106;-2.088;2023-07-31T05:24:41;21.80;80.30
17080;DHT22;8655;57.106;-2.088;2023-07-31T05:27:07;21.80;80.20
17080;DHT22;8655;57.106;-2.088;2023-07-31T05:29:32;21.80;80.30
17080;DHT22;8655;57.106;-2.088;2023-07-31T05:31:58;21.70;80.20
17080;DHT22;8655;57.106;-2.088;2023-07-31T05:34:23;21.70;80.20
17080;DHT22;8655;57.106;-2.088;2023-07-31T05:36:49;21.70;80.20
17080;DHT22;8655;57.106;-2.088;2023-07-31T05:39:15;21.70;80.10
17080;DHT22;8655;57.106;-2.088;2023-07-31T05:41:40;21.70;80.10
17080;DHT22;8655;57.106;-2.088;2023-07-31T05:44:06;21.80;80.20
17080;DHT22;8655;57.106;-2.088;2023-07-31T05:46:32;21.80;80.20
17080;DHT22;8655;57.106;-2.088;2023-07-31T05:48:58;21.70;80.10
17080;DHT22;8655;57.106;-2.088;2023-07-31T05:51:26;21.70;80.10
17080;DHT22;8655;57.106;-2.088;2023-07-31T05:53:52;21.70;80.10
17080;DHT22;8655;57.106;-2.088;2023-07-31T05:56:17;21.70;80.10
17080;DHT22;8655;57.106;-2.088;2023-07-31T05:58:43;21.70;80.10
17080;DHT22;8655;57.106;-2.088;2023-07-31T06:01:09;21.70;80.20
17080;DHT22;8655;57.106;-2.088;2023-07-31T06:03:34;21.70;80.20
17080;DHT22;8655;57.106;-2.088;2023-07-31T06:06:00;21.70;80.20
17080;DHT22;8655;57.106;-2.088;2023-07-31T06:08:25;21.70;80.20
17080;DHT22;8655;57.106;-2.088;2023-07-31T06:10:51;21.70;80.20
17080;DHT22;8655;57.106;-2.088;2023-07-31T06:13:17;21.70;80.20
17080;DHT22;8655;57.106;-2.088;2023-07-31T06:15:43;21.70;80.20
17080;DHT22;8655;57.106;-2.088;2023-07-31T06:18:09;21.70;80.20
17080;DHT22;8655;57.106;-2.088;2023-07-31T06:20:35;21.70;80.20
17080;DHT22;8655;57.106;-2.088;2023-07-31T06:23:01;21.70;80.10
17080;DHT22;8655;57.106;-2.088;2023-07-31T06:25:27;21.70;80.20
17080;DHT22;8655;57.106;-2.088;2023-07-31T06:27:52;21.70;80.20
17080;DHT22;8655;57.106;-2.088;2023-07-31T06:30:18;21.70;80.20
17080;DHT22;8655;57.106;-2.088;2023-07-31T06:32:43;21.70;80.20
17080;DHT22;8655;57.106;-2.088;2023-07-31T06:35:09;21.70;80.20
17080;DHT22;8655;57.106;-2.088;2023-07-31T06:37:35;21.70;80.20
17080;DHT22;8655;57.106;-2.088;2023-07-31T06:40:01;21.70;80.20
17080;DHT22;8655;57.106;-2.088;2023-07-31T06:42:26;21.70;80.20
17080;DHT22;8655;57.106;-2.088;2023-07-31T06:44:52;21.70;80.20
17080;DHT22;8655;57.106;-2.088;2023-07-31T06:47:18;21.70;80.20
17080;DHT22;8655;57.106;-2.088;2023-07-31T06:49:43;21.70;80.20
17080;DHT22;8655;57.106;-2.088;2023-07-31T06:52:09;21.70;80.30
17080;DHT22;8655;57.106;-2.088;2023-07-31T06:54:36;21.60;80.10
17080;DHT22;8655;57.106;-2.088;2023-07-31T06:57:02;21.60;80.10
17080;DHT22;8655;57.106;-2.088;2023-07-31T06:59:29;21.70;80.30
17080;DHT22;8655;57.106;-2.088;2023-07-31T07:01:54;21.70;80.30
17080;DHT22;8655;57.106;-2.088;2023-07-31T07:04:20;21.70;80.30
17080;DHT22;8655;57.106;-2.088;2023-07-31T07:06:46;21.60;80.20
17080;DHT22;8655;57.106;-2.088;2023-07-31T07:09:11;21.70;80.30
17080;DHT22;8655;57.106;-2.088;2023-07-31T07:11:37;21.70;80.30
17080;DHT22;8655;57.106;-2.088;2023-07-31T07:14:03;21.70;80.30
17080;DHT22;8655;57.106;-2.088;2023-07-31T07:16:29;21.70;80.30
17080;DHT22;8655;57.106;-2.088;2023-07-31T07:18:54;21.60;80.20
17080;DHT22;8655;57.106;-2.088;2023-07-31T07:21:20;21.60;80.20
17080;DHT22;8655;57.106;-2.088;2023-07-31T07:23:46;21.70;80.30
17080;DHT22;8655;57.106;-2.088;2023-07-31T07:26:11;21.60;80.20
17080;DHT22;8655;57.106;-2.088;2023-07-31T07:28:37;21.70;80.30
17080;DHT22;8655;57.106;-2.088;2023-07-31T07:31:03;21.70;80.30
17080;DHT22;8655;57.106;-2.088;2023-07-31T07:33:29;21.60;80.20
17080;DHT22;8655;57.106;-2.088;2023-07-31T07:35:54;21.70;80.30
17080;DHT22;8655;57.106;-2.088;2023-07-31T07:38:20;21.70;80.30
17080;DHT22;8655;57.106;-2.088;2023-07-31T07:40:46;21.70;80.40
17080;DHT22;8655;57.106;-2.088;2023-07-31T07:43:15;21.60;80.30
17080;DHT22;8655;57.106;-2.088;2023-07-31T07:45:41;21.60;80.30
17080;DHT22;8655;57.106;-2.088;2023-07-31T07:48:07;21.60;80.30
17080;DHT22;8655;57.106;-2.088;2023-07-31T07:50:32;21.60;80.30
17080;DHT22;8655;57.106;-2.088;2023-07-31T07:52:58;21.60;80.30
17080;DHT22;8655;57.106;-2.088;2023-07-31T07:55:24;21.70;80.40
17080;DHT22;8655;57.106;-2.088;2023-07-31T07:57:49;21.60;80.30
17080;DHT22;8655;57.106;-2.088;2023-07-31T08:00:16;21.60;80.30
17080;DHT22;8655;57.106;-2.088;2023-07-31T08:02:43;21.70;80.50
17080;DHT22;8655;57.106;-2.088;2023-07-31T08:05:09;21.60;80.40
17080;DHT22;8655;57.106;-2.088;2023-07-31T08:07:34;21.70;80.50
17080;DHT22;8655;57.106;-2.088;2023-07-31T08:10:00;21.70;80.50
17080;DHT22;8655;57.106;-2.088;2023-07-31T08:12:26;21.70;80.50
17080;DHT22;8655;57.106;-2.088;2023-07-31T08:14:52;21.60;80.40
17080;DHT22;8655;57.106;-2.088;2023-07-31T08:17:17;21.70;80.50
17080;DHT22;8655;57.106;-2.088;2023-07-31T08:19:43;21.70;80.50
17080;DHT22;8655;57.106;-2.088;2023-07-31T08:22:09;21.70;80.50
17080;DHT22;8655;57.106;-2.088;2023-07-31T08:24:35;21.70;80.60
17080;DHT22;8655;57.106;-2.088;2023-07-31T08:27:00;21.70;80.50
17080;DHT22;8655;57.106;-2.088;2023-07-31T08:29:26;21.70;80.60
17080;DHT22;8655;57.106;-2.088;2023-07-31T08:31:52;21.70;80.60
17080;DHT22;8655;57.106;-2.088;2023-07-31T08:34:17;21.70;80.60
17080;DHT22;8655;57.106;-2.088;2023-07-31T08:36:43;21.70;80.60
17080;DHT22;8655;57.106;-2.088;2023-07-31T08:39:09;21.70;80.60
17080;DHT22;8655;57.106;-2.088;2023-07-31T08:41:38;21.70;80.60
17080;DHT22;8655;57.106;-2.088;2023-07-31T08:44:07;21.70;80.60
17080;DHT22;8655;57.106;-2.088;2023-07-31T08:46:33;21.70;80.60
17080;DHT22;8655;57.106;-2.088;2023-07-31T08:49:00;21.70;80.60
17080;DHT22;8655;57.106;-2.088;2023-07-31T08:51:30;21.70;80.60
17080;DHT22;8655;57.106;-2.088;2023-07-31T08:53:55;21.70;80.60
17080;DHT22;8655;57.106;-2.088;2023-07-31T08:56:23;21.70;80.60
17080;DHT22;8655;57.106;-2.088;2023-07-31T08:58:49;21.70;80.60
17080;DHT22;8655;57.106;-2.088;2023-07-31T09:01:16;21.70;80.60
17080;DHT22;8655;57.106;-2.088;2023-07-31T09:03:43;21.70;80.60
17080;DHT22;8655;57.106;-2.088;2023-07-31T09:06:10;21.70;80.60
17080;DHT22;8655;57.106;-2.088;2023-07-31T09:08:37;21.70;80.60
17080;DHT22;8655;57.106;-2.088;2023-07-31T09:11:05;21.70;80.70
17080;DHT22;8655;57.106;-2.088;2023-07-31T09:13:32;21.70;80.60
17080;DHT22;8655;57.106;-2.088;2023-07-31T09:15:58;21.70;80.60
17080;DHT22;8655;57.106;-2.088;2023-07-31T09:18:23;21.70;80.70
17080;DHT22;8655;57.106;-2.088;2023-07-31T09:21:04;21.70;80.70
17080;DHT22;8655;57.106;-2.088;2023-07-31T09:23:46;21.70;80.60
17080;DHT22;8655;57.106;-2.088;2023-07-31T09:26:36;21.70;80.70
17080;DHT22;8655;57.106;-2.088;2023-07-31T09:29:07;21.70;80.60
17080;DHT22;8655;57.106;-2.088;2023-07-31T09:31:43;21.70;80.60
17080;DHT22;8655;57.106;-2.088;2023-07-31T09:34:11;21.70;80.70
17080;DHT22;8655;57.106;-2.088;2023-07-31T09:36:48;21.70;80.70
17080;DHT22;8655;57.106;-2.088;2023-07-31T09:39:17;21.80;80.80
17080;DHT22;8655;57.106;-2.088;2023-07-31T09:41:45;21.70;80.70
17080;DHT22;8655;57.106;-2.088;2023-07-31T09:44:11;21.80;80.80
17080;DHT22;8655;57.106;-2.088;2023-07-31T09:46:37;21.80;80.80
17080;DHT22;8655;57.106;-2.088;2023-07-31T09:49:13;21.80;80.80
17080;DHT22;8655;57.106;-2.088;2023-07-31T09:51:41;21.80;80.80
17080;DHT22;8655;57.106;-2.088;2023-07-31T09:54:10;21.80;80.80
17080;DHT22;8655;57.106;-2.088;2023-07-31T09:56:47;21.80;80.80
17080;DHT22;8655;57.106;-2.088;2023-07-31T09:59:14;21.80;80.80
17080;DHT22;8655;57.106;-2.088;2023-07-31T10:01:41;21.80;80.80
17080;DHT22;8655;57.106;-2.088;2023-07-31T10:04:11;21.80;80.80
17080;DHT22;8655;57.106;-2.088;2023-07-31T10:06:37;21.80;80.90
17080;DHT22;8655;57.106;-2.088;2023-07-31T10:09:09;21.80;80.90
17080;DHT22;8655;57.106;-2.088;2023-07-31T10:11:59;21.80;80.90
17080;DHT22;8655;57.106;-2.088;2023-07-31T10:14:26;21.80;80.80
17080;DHT22;8655;57.106;-2.088;2023-07-31T10:16:53;21.80;80.90
17080;DHT22;8655;57.106;-2.088;2023-07-31T10:19:20;21.80;80.90
17080;DHT22;8655;57.106;-2.088;2023-07-31T10:21:47;21.80;80.90
17080;DHT22;8655;57.106;-2.088;2023-07-31T10:24:15;21.80;80.90
17080;DHT22;8655;57.106;-2.088;2023-07-31T10:26:41;21.80;80.90
17080;DHT22;8655;57.106;-2.088;2023-07-31T10:29:11;21.80;80.90
17080;DHT22;8655;57.106;-2.088;2023-07-31T10:31:37;21.80;80.90
17080;DHT22;8655;57.106;-2.088;2023-07-31T10:34:03;21.80;80.90
17080;DHT22;8655;57.106;-2.088;2023-07-31T10:36:29;21.80;80.90
17080;DHT22;8655;57.106;-2.088;2023-07-31T10:38:55;21.80;80.90
17080;DHT22;8655;57.106;-2.088;2023-07-31T10:41:31;21.90;81.10
17080;DHT22;8655;57.106;-2.088;2023-07-31T10:43:59;21.90;81.10
17080;DHT22;8655;57.106;-2.088;2023-07-31T10:46:25;21.80;80.90
17080;DHT22;8655;57.106;-2.088;2023-07-31T10:48:58;21.90;81.10
17080;DHT22;8655;57.106;-2.088;2023-07-31T10:51:33;21.90;81.10
17080;DHT22;8655;57.106;-2.088;2023-07-31T10:54:13;21.90;81.10
17080;DHT22;8655;57.106;-2.088;2023-07-31T10:56:40;21.90;81.10
17080;DHT22;8655;57.106;-2.088;2023-07-31T10:59:09;21.80;81.60
17080;DHT22;8655;57.106;-2.088;2023-07-31T11:01:55;21.90;81.10
17080;DHT22;8655;57.106;-2.088;2023-07-31T11:04:28;21.90;81.10
17080;DHT22;8655;57.106;-2.088;2023-07-31T11:07:01;21.90;81.10
17080;DHT22;8655;57.106;-2.088;2023-07-31T11:09:29;21.90;81.10
17080;DHT22;8655;57.106;-2.088;2023-07-31T11:11:56;21.90;81.10
17080;DHT22;8655;57.106;-2.088;2023-07-31T11:14:22;21.90;81.10
17080;DHT22;8655;57.106;-2.088;2023-07-31T11:16:51;21.90;81.10
17080;DHT22;8655;57.106;-2.088;2023-07-31T11:19:24;21.90;81.10
17080;DHT22;8655;57.106;-2.088;2023-07-31T11:21:53;21.90;81.10
17080;DHT22;8655;57.106;-2.088;2023-07-31T11:24:19;21.90;81.10
17080;DHT22;8655;57.106;-2.088;2023-07-31T11:26:50;21.90;81.10
17080;DHT22;8655;57.106;-2.088;2023-07-31T11:29:17;21.90;81.10
17080;DHT22;8655;57.106;-2.088;2023-07-31T11:31:43;21.90;81.10
17080;DHT22;8655;57.106;-2.088;2023-07-31T11:34:09;21.90;81.20
17080;DHT22;8655;57.106;-2.088;2023-07-31T11:36:34;21.90;81.20
17080;DHT22;8655;57.106;-2.088;2023-07-31T11:39:08;21.90;81.20
17080;DHT22;8655;57.106;-2.088;2023-07-31T11:41:34;22.00;81.30
17080;DHT22;8655;57.106;-2.088;2023-07-31T11:44:00;21.90;81.10
17080;DHT22;8655;57.106;-2.088;2023-07-31T11:46:26;21.90;81.20
17080;DHT22;8655;57.106;-2.088;2023-07-31T11:48:52;21.90;81.20
17080;DHT22;8655;57.106;-2.088;2023-07-31T11:51:24;21.90;81.20
17080;DHT22;8655;57.106;-2.088;2023-07-31T11:53:57;21.90;81.20
17080;DHT22;8655;57.106;-2.088;2023-07-31T11:56:25;21.90;81.20
17080;DHT22;8655;57.106;-2.088;2023-07-31T11:58:59;22.00;81.30
17080;DHT22;8655;57.106;-2.088;2023-07-31T12:01:26;22.00;81.30
17080;DHT22;8655;57.106;-2.088;2023-07-31T12:03:53;22.00;81.30
17080;DHT22;8655;57.106;-2.088;2023-07-31T12:06:20;22.00;81.30
17080;DHT22;8655;57.106;-2.088;2023-07-31T12:08:46;21.90;81.20
17080;DHT22;8655;57.106;-2.088;2023-07-31T12:11:12;21.90;81.20
17080;DHT22;8655;57.106;-2.088;2023-07-31T12:13:43;22.00;81.30
17080;DHT22;8655;57.106;-2.088;2023-07-31T12:16:08;22.00;81.30
17080;DHT22;8655;57.106;-2.088;2023-07-31T12:18:36;22.00;81.30
17080;DHT22;8655;57.106;-2.088;2023-07-31T12:21:04;22.00;81.30
17080;DHT22;8655;57.106;-2.088;2023-07-31T12:23:32;22.00;81.30
17080;DHT22;8655;57.106;-2.088;2023-07-31T12:26:17;22.00;81.30
17080;DHT22;8655;57.106;-2.088;2023-07-31T12:28:48;22.00;81.30
17080;DHT22;8655;57.106;-2.088;2023-07-31T12:31:18;22.00;81.30
17080;DHT22;8655;57.106;-2.088;2023-07-31T12:33:45;22.00;81.40
17080;DHT22;8655;57.106;-2.088;2023-07-31T12:36:25;22.10;81.40
17080;DHT22;8655;57.106;-2.088;2023-07-31T12:38:51;22.00;81.30
17080;DHT22;8655;57.106;-2.088;2023-07-31T12:41:17;22.00;81.30
17080;DHT22;8655;57.106;-2.088;2023-07-31T12:43:44;22.00;81.40
17080;DHT22;8655;57.106;-2.088;2023-07-31T12:46:10;22.00;81.40
17080;DHT22;8655;57.106;-2.088;2023-07-31T12:48:37;22.00;81.30
17080;DHT22;8655;57.106;-2.088;2023-07-31T12:51:03;22.00;81.40
17080;DHT22;8655;57.106;-2.088;2023-07-31T12:53:29;22.00;81.40
17080;DHT22;8655;57.106;-2.088;2023-07-31T12:55:58;22.00;81.40
17080;DHT22;8655;57.106;-2.088;2023-07-31T12:58:25;22.10;81.50
17080;DHT22;8655;57.106;-2.088;2023-07-31T13:00:51;22.10;81.50
17080;DHT22;8655;57.106;-2.088;2023-07-31T13:03:17;22.10;81.50
17080;DHT22;8655;57.106;-2.088;2023-07-31T13:05:43;22.10;81.50
17080;DHT22;8655;57.106;-2.088;2023-07-31T13:08:08;22.10;81.50
17080;DHT22;8655;57.106;-2.088;2023-07-31T13:10:34;22.10;81.50
17080;DHT22;8655;57.106;-2.088;2023-07-31T13:13:00;22.10;81.50
17080;DHT22;8655;57.106;-2.088;2023-07-31T13:15:25;22.10;81.60
17080;DHT22;8655;57.106;-2.088;2023-07-31T13:17:51;22.10;81.50
17080;DHT22;8655;57.106;-2.088;2023-07-31T13:20:17;22.10;81.50
17080;DHT22;8655;57.106;-2.088;2023-07-31T13:22:42;22.10;81.50
17080;DHT22;8655;57.106;-2.088;2023-07-31T13:25:08;22.10;81.60
17080;DHT22;8655;57.106;-2.088;2023-07-31T13:27:35;22.10;81.50
17080;DHT22;8655;57.106;-2.088;2023-07-31T13:30:01;22.10;81.50
17080;DHT22;8655;57.106;-2.088;2023-07-31T13:32:26;22.10;81.50
17080;DHT22;8655;57.106;-2.088;2023-07-31T13:34:52;22.10;81.60
17080;DHT22;8655;57.106;-2.088;2023-07-31T13:37:18;22.10;81.50
17080;DHT22;8655;57.106;-2.088;2023-07-31T13:39:43;22.10;81.50
17080;DHT22;8655;57.106;-2.088;2023-07-31T13:42:10;22.10;81.60
17080;DHT22;8655;57.106;-2.088;2023-07-31T13:44:40;22.10;81.50
17080;DHT22;8655;57.106;-2.088;2023-07-31T13:47:07;22.10;81.50
17080;DHT22;8655;57.106;-2.088;2023-07-31T13:49:33;22.10;82.20
17080;DHT22;8655;57.106;-2.088;2023-07-31T13:51:59;22.10;81.50
17080;DHT22;8655;57.106;-2.088;2023-07-31T13:54:26;22.20;81.60
17080;DHT22;8655;57.106;-2.088;2023-07-31T13:56:52;22.10;81.60
17080;DHT22;8655;57.106;-2.088;2023-07-31T13:59:18;22.10;81.60
17080;DHT22;8655;57.106;-2.088;2023-07-31T14:01:44;22.10;81.60
17080;DHT22;8655;57.106;-2.088;2023-07-31T14:04:10;22.10;81.60
17080;DHT22;8655;57.106;-2.088;2023-07-31T14:06:36;22.10;81.60
17080;DHT22;8655;57.106;-2.088;2023-07-31T14:09:02;22.10;81.60
17080;DHT22;8655;57.106;-2.088;2023-07-31T14:11:28;22.10;81.60
17080;DHT22;8655;57.106;-2.088;2023-07-31T14:13:54;22.10;81.60
17080;DHT22;8655;57.106;-2.088;2023-07-31T14:16:21;22.10;81.60
17080;DHT22;8655;57.106;-2.088;2023-07-31T14:18:47;22.20;81.70
17080;DHT22;8655;57.106;-2.088;2023-07-31T14:21:13;22.10;81.60
17080;DHT22;8655;57.106;-2.088;2023-07-31T14:23:39;22.20;81.70
17080;DHT22;8655;57.106;-2.088;2023-07-31T14:26:05;22.20;81.70
17080;DHT22;8655;57.106;-2.088;2023-07-31T14:28:31;22.20;81.70
17080;DHT22;8655;57.106;-2.088;2023-07-31T14:30:57;22.20;81.70
17080;DHT22;8655;57.106;-2.088;2023-07-31T14:33:23;22.20;81.70
17080;DHT22;8655;57.106;-2.088;2023-07-31T14:35:49;22.20;81.70
17080;DHT22;8655;57.106;-2.088;2023-07-31T14:38:14;22.20;81.70
17080;DHT22;8655;57.106;-2.088;2023-07-31T14:40:41;22.20;81.70
17080;DHT22;8655;57.106;-2.088;2023-07-31T14:43:06;22.20;81.70
17080;DHT22;8655;57.106;-2.088;2023-07-31T14:45:32;22.20;81.70
17080;DHT22;8655;57.106;-2.088;2023-07-31T14:47:58;22.20;81.70
17080;DHT22;8655;57.106;-2.088;2023-07-31T14:50:24;22.20;81.70
17080;DHT22;8655;57.106;-2.088;2023-07-31T14:52:50;22.20;81.70
17080;DHT22;8655;57.106;-2.088;2023-07-31T14:55:16;22.20;81.60
17080;DHT22;8655;57.106;-2.088;2023-07-31T14:57:41;22.20;81.60
17080;DHT22;8655;57.106;-2.088;2023-07-31T15:00:08;22.20;81.60
17080;DHT22;8655;57.106;-2.088;2023-07-31T15:02:37;22.20;81.60
17080;DHT22;8655;57.106;-2.088;2023-07-31T15:05:03;22.20;81.60
17080;DHT22;8655;57.106;-2.088;2023-07-31T15:07:29;22.20;81.70
17080;DHT22;8655;57.106;-2.088;2023-07-31T15:09:55;22.20;81.70
17080;DHT22;8655;57.106;-2.088;2023-07-31T15:12:21;22.20;81.60
17080;DHT22;8655;57.106;-2.088;2023-07-31T15:14:48;22.20;81.60
17080;DHT22;8655;57.106;-2.088;2023-07-31T15:17:14;22.20;81.60
17080;DHT22;8655;57.106;-2.088;2023-07-31T15:19:40;22.20;81.60
17080;DHT22;8655;57.106;-2.088;2023-07-31T15:22:06;22.20;81.70
17080;DHT22;8655;57.106;-2.088;2023-07-31T15:24:31;22.20;81.60
17080;DHT22;8655;57.106;-2.088;2023-07-31T15:26:57;22.20;81.60
17080;DHT22;8655;57.106;-2.088;2023-07-31T15:29:23;22.20;81.60
17080;DHT22;8655;57.106;-2.088;2023-07-31T15:31:49;22.20;81.70
17080;DHT22;8655;57.106;-2.088;2023-07-31T15:34:15;22.20;81.60
17080;DHT22;8655;57.106;-2.088;2023-07-31T15:36:41;22.20;81.60
17080;DHT22;8655;57.106;-2.088;2023-07-31T15:39:07;22.20;81.60